Time;durP1;ratioP1;P1;durP2;ratioP2;P2;SDS_P1;SDS_P2;PMS_P1;PMS_P2;Temp;Humidity;BMP_temperature;BMP_pressure;BME280_temperature;BME280_humidity;BME280_pressure;Samples;Min_cycle;Max_cycle;Signal;HPM_P1;HPM_P2
2021/03/31 00:00:28;;;;;;;20.95;13.75;;;;;;;8.66;79.71;100500.92;1748469;81;21693;-76
2021/03/31 00:02:58;;;;;;;26.40;13.40;;;;;;;8.65;79.72;100494.83;1754218;80;21171;-75
2021/03/31 00:05:26;;;;;;;20.10;12.35;;;;;;;8.65;79.77;100494.83;1780238;79;21194;-74
2021/03/31 00:07:54;;;;;;;23.75;13.80;;;;;;;8.62;79.75;100497.52;1752274;80;22389;-75
2021/03/31 00:10:28;;;;;;;20.52;12.63;;;;;;;8.60;79.76;100488.92;1778116;79;21262;-74
2021/03/31 00:12:55;;;;;;;20.15;13.00;;;;;;;8.60;79.85;100494.13;1773502;78;21917;-76
2021/03/31 00:15:23;;;;;;;22.42;13.53;;;;;;;8.58;79.85;100490.70;1756534;80;21500;-75
2021/03/31 00:17:50;;;;;;;20.82;12.43;;;;;;;8.55;79.86;100482.98;1743601;81;21187;-75
2021/03/31 00:20:18;;;;;;;17.30;12.60;;;;;;;8.52;79.93;100485.67;1761592;81;21187;-75
2021/03/31 00:22:45;;;;;;;18.92;12.88;;;;;;;8.50;79.97;100488.30;1757233;81;21196;-75
2021/03/31 00:25:13;;;;;;;17.90;11.90;;;;;;;8.48;80.07;100489.23;1757264;80;21611;-75
2021/03/31 00:27:41;;;;;;;26.27;13.48;;;;;;;8.48;80.13;100491.83;1758005;79;21212;-74
2021/03/31 00:30:13;;;;;;;20.02;13.28;;;;;;;8.46;80.08;100485.84;1755296;80;21142;-75
2021/03/31 00:32:40;;;;;;;25.12;13.28;;;;;;;8.44;80.13;100483.27;1757444;80;21677;-75
2021/03/31 00:35:09;;;;;;;22.45;13.35;;;;;;;8.42;80.11;100486.80;1775547;79;21205;-76
2021/03/31 00:37:37;;;;;;;23.67;12.53;;;;;;;8.39;80.19;100479.92;1778493;79;21729;-77
2021/03/31 00:40:12;;;;;;;23.92;12.98;;;;;;;8.39;80.27;100486.88;1751866;81;21231;-76
2021/03/31 00:42:39;;;;;;;18.85;12.78;;;;;;;8.37;80.27;100479.52;1753676;81;21212;-76
2021/03/31 00:45:08;;;;;;;22.15;12.78;;;;;;;8.36;80.31;100473.91;1753618;80;21116;-76
2021/03/31 00:47:36;;;;;;;17.80;11.55;;;;;;;8.36;80.33;100477.81;1748885;80;21284;-75
2021/03/31 00:50:10;;;;;;;21.80;13.05;;;;;;;8.35;80.38;100474.83;1749188;81;21221;-75
2021/03/31 00:52:41;;;;;;;20.68;13.22;;;;;;;8.33;80.36;100474.00;1767103;79;21430;-75
2021/03/31 00:55:11;;;;;;;20.48;12.90;;;;;;;8.30;80.42;100473.17;1769460;80;21403;-75
2021/03/31 00:57:39;;;;;;;22.82;12.18;;;;;;;8.28;80.43;100468.91;1768088;79;21630;-75
2021/03/31 01:00:09;;;;;;;24.20;12.68;;;;;;;8.25;80.44;100469.83;1767601;80;21189;-74
2021/03/31 01:02:40;;;;;;;19.25;13.03;;;;;;;8.23;80.49;100475.55;1759732;80;21651;-74
2021/03/31 01:05:25;;;;;;;23.18;12.37;;;;;;;8.20;80.48;100469.09;1759892;80;21166;-76
2021/03/31 01:07:53;;;;;;;20.72;12.23;;;;;;;8.16;80.56;100462.27;1769209;80;20966;-76
2021/03/31 01:10:34;;;;;;;19.48;12.68;;;;;;;8.14;80.60;100460.60;1772981;80;21638;-75
2021/03/31 01:13:29;;;;;;;21.55;13.18;;;;;;;8.10;80.65;100456.39;1765683;80;21190;-75
2021/03/31 01:16:28;;;;;;;21.80;11.68;;;;;;;8.06;80.66;100451.23;1768596;80;21194;-74
2021/03/31 01:19:12;;;;;;;17.35;12.80;;;;;;;8.02;80.76;100446.17;1770838;80;21650;-74
2021/03/31 01:21:53;;;;;;;17.27;11.03;;;;;;;7.98;80.80;100445.39;1741231;81;21673;-74
2021/03/31 01:25:05;;;;;;;18.73;11.95;;;;;;;7.94;81.16;100439.84;1730587;81;21227;-74
2021/03/31 01:28:05;;;;;;;21.40;12.07;;;;;;;7.93;80.92;100436.00;1747104;80;22386;-74
2021/03/31 01:31:04;;;;;;;19.45;12.82;;;;;;;7.87;80.97;100430.93;1690283;83;21223;-74
2021/03/31 01:34:00;;;;;;;17.15;12.33;;;;;;;7.83;81.01;100433.61;1690145;83;21252;-75
2021/03/31 01:36:29;;;;;;;20.05;12.25;;;;;;;7.78;81.03;100432.02;1692269;83;21666;-74
2021/03/31 01:39:00;;;;;;;19.23;11.38;;;;;;;7.73;81.10;100430.84;1694307;83;21121;-76
2021/03/31 01:41:30;;;;;;;18.77;11.88;;;;;;;7.72;81.26;100430.41;1694142;83;22396;-76
2021/03/31 01:43:59;;;;;;;19.85;11.50;;;;;;;7.70;81.34;100428.33;1690010;83;21202;-75
2021/03/31 01:46:31;;;;;;;20.92;11.95;;;;;;;7.70;81.45;100436.13;1681880;83;21611;-76
2021/03/31 01:49:02;;;;;;;19.35;11.93;;;;;;;7.67;81.33;100424.47;1691302;83;21286;-76
2021/03/31 01:51:31;;;;;;;18.70;11.08;;;;;;;7.64;81.28;100429.75;1688890;82;21156;-74
2021/03/31 01:54:00;;;;;;;20.17;11.45;;;;;;;7.60;81.36;100428.13;1704410;82;21284;-74
2021/03/31 01:56:28;;;;;;;22.42;11.22;;;;;;;7.58;81.39;100418.20;1694054;82;21275;-75
2021/03/31 01:58:57;;;;;;;16.45;11.20;;;;;;;7.57;81.38;100412.61;1700416;82;21642;-76
2021/03/31 02:01:26;;;;;;;20.20;10.90;;;;;;;7.56;81.47;100413.48;1688887;82;21226;-75
2021/03/31 02:03:57;;;;;;;20.25;11.50;;;;;;;7.55;81.42;100409.18;1710025;82;21200;-75
2021/03/31 02:06:30;;;;;;;19.52;11.18;;;;;;;7.53;81.49;100414.85;1712483;81;21237;-75
2021/03/31 02:08:58;;;;;;;17.92;11.40;;;;;;;7.49;81.41;100418.43;1754483;80;21172;-75
2021/03/31 02:11:28;;;;;;;15.95;10.45;;;;;;;7.46;81.50;100419.80;1756890;80;21148;-75
2021/03/31 02:13:57;;;;;;;17.87;11.38;;;;;;;7.46;81.74;100424.55;1751628;79;21091;-75
2021/03/31 02:16:25;;;;;;;16.87;10.82;;;;;;;7.46;81.62;100419.80;1756755;80;21193;-74
2021/03/31 02:18:54;;;;;;;16.82;10.50;;;;;;;7.42;81.74;100416.40;1756134;80;21372;-75
2021/03/31 02:21:22;;;;;;;18.67;11.00;;;;;;;7.43;81.77;100419.87;1757366;81;21214;-75
2021/03/31 02:23:50;;;;;;;16.25;10.68;;;;;;;7.42;81.75;100414.25;1751838;81;21560;-75
2021/03/31 02:26:17;;;;;;;16.82;10.65;;;;;;;7.38;81.72;100410.42;1754615;80;21196;-75
2021/03/31 02:28:45;;;;;;;13.80;10.23;;;;;;;7.37;81.94;100411.33;1753095;81;21078;-75
2021/03/31 02:31:15;;;;;;;18.12;10.58;;;;;;;7.36;81.99;100405.70;1755374;79;22080;-75
2021/03/31 02:33:45;;;;;;;17.80;9.98;;;;;;;7.38;82.02;100404.38;1749986;81;21231;-75
2021/03/31 02:36:14;;;;;;;18.98;11.30;;;;;;;7.35;81.97;100405.30;1752966;79;21056;-75
2021/03/31 02:38:44;;;;;;;21.17;11.65;;;;;;;7.32;81.94;100402.78;1755066;81;21025;-75
2021/03/31 02:41:12;;;;;;;17.65;10.30;;;;;;;7.29;81.91;100400.25;1752960;81;21147;-75
2021/03/31 02:43:47;;;;;;;24.05;11.12;;;;;;;7.25;82.12;100396.00;1756009;81;21204;-74
2021/03/31 02:46:19;;;;;;;24.10;12.05;;;;;;;7.24;81.98;100394.30;1752552;81;21094;-75
2021/03/31 02:48:49;;;;;;;17.73;11.10;;;;;;;7.21;82.00;100389.64;1781099;79;21169;-76
2021/03/31 02:51:19;;;;;;;19.52;10.95;;;;;;;7.17;81.99;100388.41;1781065;78;21100;-75
2021/03/31 02:53:48;;;;;;;16.97;11.95;;;;;;;7.14;82.03;100395.39;1753547;80;21172;-74
2021/03/31 02:56:16;;;;;;;18.85;11.33;;;;;;;7.11;82.06;100396.77;1758281;80;21404;-74
2021/03/31 02:58:46;;;;;;;16.48;10.15;;;;;;;7.09;82.06;100392.07;1757320;80;21324;-74
2021/03/31 03:01:14;;;;;;;16.02;9.93;;;;;;;7.06;82.17;100395.59;1752691;80;21230;-74
2021/03/31 03:03:42;;;;;;;16.60;10.38;;;;;;;7.03;82.23;100401.27;1751305;80;21073;-74
2021/03/31 03:06:09;;;;;;;19.07;10.60;;;;;;;7.00;82.22;100400.04;1756226;79;21675;-75
2021/03/31 03:08:37;;;;;;;16.37;11.60;;;;;;;6.95;82.32;100402.75;1751136;81;24573;-75
2021/03/31 03:11:04;;;;;;;17.07;10.68;;;;;;;6.92;82.23;100403.67;1768378;79;21162;-75
2021/03/31 03:13:32;;;;;;;;;;;;;;;6.88;82.31;100389.03;1782726;80;21201;-75
2021/03/31 03:16:00;;;;;;;14.75;10.23;;;;;;;6.84;82.29;100390.45;1785123;80;20620;-75
2021/03/31 03:18:27;;;;;;;17.17;11.08;;;;;;;6.80;82.28;100393.53;1786830;80;21195;-75
2021/03/31 03:20:54;;;;;;;17.77;10.55;;;;;;;6.73;82.33;100394.56;1749563;80;21589;-74
2021/03/31 03:23:22;;;;;;;15.32;9.85;;;;;;;6.69;82.39;100390.30;1777491;79;20985;-74
2021/03/31 03:25:50;;;;;;;20.20;11.28;;;;;;;6.65;82.37;100390.81;1776677;79;21045;-75
2021/03/31 03:28:23;;;;;;;31.23;10.70;;;;;;;6.62;82.31;100393.92;1780987;79;21189;-74
2021/03/31 03:30:51;;;;;;;17.65;10.63;;;;;;;6.58;82.33;100394.86;1754117;80;21170;-74
2021/03/31 03:33:19;;;;;;;12.90;9.90;;;;;;;6.53;82.39;100394.13;1757997;81;21403;-74
2021/03/31 03:35:47;;;;;;;14.45;10.03;;;;;;;6.48;82.35;100397.64;1757743;80;21043;-74
2021/03/31 03:38:15;;;;;;;15.08;9.58;;;;;;;6.44;82.43;100393.41;1756274;81;22462;-75
2021/03/31 03:40:45;;;;;;;14.10;9.73;;;;;;;6.41;82.45;100389.59;1749867;80;21170;-75
2021/03/31 03:43:16;;;;;;;13.68;9.58;;;;;;;6.37;82.45;100395.70;1777959;80;21128;-75
2021/03/31 03:45:44;;;;;;;18.00;9.38;;;;;;;6.34;82.50;100391.88;1784941;79;21264;-75
2021/03/31 03:48:11;;;;;;;18.82;10.35;;;;;;;6.29;82.51;100387.21;1783512;79;21148;-75
2021/03/31 03:50:39;;;;;;;17.57;10.32;;;;;;;6.24;82.49;100379.95;1755463;80;21136;-76
2021/03/31 03:53:06;;;;;;;;;;;;;;;6.22;82.54;100384.34;1772225;79;21192;-74
2021/03/31 03:55:35;;;;;;;17.95;10.15;;;;;;;6.19;82.73;100386.96;1768720;79;20277;-75
2021/03/31 03:58:07;;;;;;;16.30;10.75;;;;;;;6.17;82.69;100390.05;1752000;80;22222;-76
2021/03/31 04:00:35;;;;;;;15.32;9.08;;;;;;;6.12;82.60;100387.98;1751441;80;21120;-76
2021/03/31 04:03:04;;;;;;;16.27;9.68;;;;;;;6.10;82.74;100387.14;1779546;79;21160;-76
2021/03/31 04:05:31;;;;;;;17.40;10.58;;;;;;;6.09;82.78;100388.03;1752678;80;21654;-74
2021/03/31 04:07:59;;;;;;;19.25;10.72;;;;;;;6.05;82.67;100390.69;1731318;81;21202;-74
2021/03/31 04:10:28;;;;;;;19.67;9.83;;;;;;;6.03;82.72;100392.44;1731554;80;21458;-75
2021/03/31 04:12:58;;;;;;;15.95;9.48;;;;;;;6.00;82.68;100391.65;1746412;81;21539;-75
2021/03/31 04:15:27;;;;;;;15.75;10.32;;;;;;;5.97;82.68;100393.85;1749076;80;21603;-75
2021/03/31 04:17:55;;;;;;;17.10;9.63;;;;;;;5.97;82.90;100401.62;1747331;80;21244;-74
2021/03/31 04:20:26;;;;;;;17.05;10.45;;;;;;;5.97;82.99;100400.33;1767670;78;21157;-74
2021/03/31 04:22:54;;;;;;;14.58;10.75;;;;;;;5.97;82.81;100399.03;1775224;78;22160;-75
2021/03/31 04:25:23;;;;;;;;;;;;;;;5.97;82.79;100395.59;1779972;78;21152;-75
2021/03/31 04:27:53;;;;;;;18.77;10.80;;;;;;;5.98;83.00;100396.00;1771598;79;20484;-75
2021/03/31 04:30:22;;;;;;;15.13;10.25;;;;;;;5.96;82.85;100390.83;1770586;79;21136;-74
2021/03/31 04:32:51;;;;;;;19.37;11.03;;;;;;;5.98;82.83;100396.00;1778877;80;21165;-75
2021/03/31 04:35:21;;;;;;;15.65;10.10;;;;;;;5.99;82.86;100396.40;1746689;80;22395;-76
2021/03/31 04:37:49;;;;;;;14.28;9.83;;;;;;;6.07;82.99;100385.45;1776469;79;21238;-75
2021/03/31 04:40:20;;;;;;;16.50;9.58;;;;;;;6.22;83.00;100388.23;1771806;79;21572;-75
2021/03/31 04:42:48;;;;;;;19.20;10.48;;;;;;;6.42;83.04;100384.80;1735870;80;21167;-75
2021/03/31 04:45:16;;;;;;;18.60;9.53;;;;;;;6.68;82.91;100381.67;1754795;81;22006;-75
2021/03/31 04:47:43;;;;;;;23.73;9.85;;;;;;;6.93;82.87;100387.20;1754251;81;21676;-75
2021/03/31 04:50:13;;;;;;;16.55;9.50;;;;;;;7.19;82.68;100376.67;1750668;80;21245;-74
2021/03/31 04:52:40;;;;;;;14.65;9.73;;;;;;;7.46;82.64;100378.23;1742915;80;21000;-74
2021/03/31 04:55:08;;;;;;;13.43;9.38;;;;;;;7.81;82.65;100375.62;1761489;81;21184;-75
2021/03/31 04:57:35;;;;;;;14.68;8.45;;;;;;;8.21;82.49;100376.32;1761937;81;21195;-76
2021/03/31 05:00:05;;;;;;;15.80;8.48;;;;;;;8.67;82.34;100373.30;1765442;80;21202;-76
2021/03/31 05:02:32;;;;;;;17.82;8.90;;;;;;;9.18;81.96;100368.70;1764599;81;21263;-77
2021/03/31 05:04:59;;;;;;;16.10;11.08;;;;;;;9.69;81.72;100364.92;1764178;81;21248;-76
2021/03/31 05:07:26;;;;;;;12.82;8.25;;;;;;;10.25;81.43;100372.55;1755279;81;21336;-77
2021/03/31 05:09:53;;;;;;;13.55;9.13;;;;;;;10.82;81.00;100373.98;1764394;79;21232;-77
2021/03/31 05:12:19;;;;;;;12.43;9.73;;;;;;;11.38;80.94;100365.69;1761720;79;21425;-76
2021/03/31 05:14:46;;;;;;;14.63;8.10;;;;;;;11.86;80.40;100369.84;1763179;81;21642;-75
2021/03/31 05:17:13;;;;;;;11.48;8.15;;;;;;;12.28;79.25;100358.44;1766386;81;21081;-75
2021/03/31 05:19:40;;;;;;;10.68;7.33;;;;;;;12.55;79.26;100359.45;1764313;79;21035;-73
2021/03/31 05:22:07;;;;;;;11.00;8.18;;;;;;;12.79;78.84;100364.47;1760815;79;22646;-76
2021/03/31 05:24:34;;;;;;;11.85;7.75;;;;;;;13.12;78.78;100361.58;1761189;79;22727;-76
2021/03/31 05:27:04;;;;;;;13.10;8.18;;;;;;;13.48;78.61;100366.02;1758880;79;21236;-76
2021/03/31 05:29:32;;;;;;;13.50;7.53;;;;;;;13.90;78.26;100362.17;1761304;81;21181;-76
2021/03/31 05:32:00;;;;;;;21.60;7.03;;;;;;;14.26;78.04;100369.09;1765193;81;21295;-76
2021/03/31 05:34:28;;;;;;;12.18;7.40;;;;;;;14.64;78.09;100359.66;1759283;79;21243;-77
2021/03/31 05:36:56;;;;;;;12.35;7.42;;;;;;;14.95;77.69;100366.24;1763436;81;21243;-77
2021/03/31 05:39:23;;;;;;;11.15;6.87;;;;;;;15.19;77.23;100360.57;1759179;79;22169;-76
2021/03/31 05:41:50;;;;;;;13.78;7.72;;;;;;;15.28;76.79;100354.78;1756169;79;21195;-77
2021/03/31 05:44:19;;;;;;;;;;;;;;;15.36;77.00;100351.72;1768959;81;21160;-76
2021/03/31 05:46:49;;;;;;;19.17;8.45;;;;;;;15.63;76.77;100358.50;1760578;81;20330;-78
2021/03/31 05:49:16;;;;;;;21.05;8.73;;;;;;;15.83;76.10;100362.16;1761433;79;21209;-77
2021/03/31 05:51:44;;;;;;;26.45;10.55;;;;;;;15.97;76.20;100355.23;1758871;81;21261;-79
2021/03/31 05:54:11;;;;;;;15.30;8.05;;;;;;;16.26;76.41;100359.58;1758882;80;21178;-80
2021/03/31 05:56:38;;;;;;;;;;;;;;;16.49;75.63;100354.69;1765094;79;21195;-79
2021/03/31 05:59:05;;;;;;;;;;;;;;;16.60;74.53;100351.39;1759324;79;20213;-74
2021/03/31 06:01:32;;;;;;;13.62;7.90;;;;;;;16.64;74.83;100350.28;1764370;79;21494;-78
2021/03/31 06:04:01;;;;;;;10.93;6.37;;;;;;;16.80;74.88;100344.89;1755721;79;21052;-80
2021/03/31 06:06:30;;;;;;;13.68;6.83;;;;;;;16.86;74.38;100341.86;1758146;79;21198;-79
2021/03/31 06:09:08;;;;;;;19.82;9.45;;;;;;;16.84;74.57;100344.62;1754699;79;21742;-79
2021/03/31 06:11:49;;;;;;;32.83;12.37;;;;;;;17.04;74.64;100340.70;1731274;81;21629;-78
2021/03/31 06:14:35;;;;;;;20.72;9.48;;;;;;;17.30;74.69;100348.72;1753203;79;22097;-80
2021/03/31 06:17:24;;;;;;;11.25;7.08;;;;;;;17.45;73.99;100344.61;1747466;80;21184;-75
2021/03/31 06:19:51;;;;;;;19.82;8.18;;;;;;;17.47;73.41;100340.53;1589510;88;21693;-77
2021/03/31 06:22:27;;;;;;;41.50;13.13;;;;;;;17.39;73.23;100335.78;1593002;88;21312;-77
2021/03/31 06:25:15;;;;;;;45.05;11.85;;;;;;;17.46;73.11;100336.21;1591466;88;21203;-76
2021/03/31 06:27:39;;;;;;;52.75;12.33;;;;;;;17.49;72.80;100330.72;1566226;89;21335;-75
2021/03/31 06:30:09;;;;;;;;;;;;;;;17.42;72.54;100329.42;1597146;88;21231;-74
2021/03/31 06:32:39;;;;;;;28.27;9.55;;;;;;;17.68;72.20;100333.83;1572470;88;20238;-80
2021/03/31 06:35:14;;;;;;;45.03;11.65;;;;;;;17.71;72.23;100334.58;1572317;89;21199;-79
2021/03/31 06:37:41;;;;;;;39.60;12.28;;;;;;;17.81;72.03;100328.61;1589950;88;21247;-79
2021/03/31 06:40:12;;;;;;;;;;;;;;;17.82;71.75;100332.09;1567169;89;21247;-79
2021/03/31 06:42:44;;;;;;;53.73;12.30;;;;;;;17.78;70.50;100330.56;1580742;88;20307;-78
2021/03/31 06:45:18;;;;;;;31.07;9.48;;;;;;;17.45;69.84;100333.21;1586004;88;21246;-78
2021/03/31 06:47:54;;;;;;;14.93;7.20;;;;;;;17.20;70.25;100330.02;1583128;89;21227;-78
2021/03/31 06:50:18;;;;;;;13.95;6.58;;;;;;;17.15;70.26;100331.62;1593555;88;21247;-76
2021/03/31 06:52:57;;;;;;;17.12;6.72;;;;;;;17.36;70.51;100335.11;1598199;88;22450;-77
2021/03/31 06:55:28;;;;;;;17.70;6.87;;;;;;;17.36;69.10;100338.59;1596707;88;21227;-78
2021/03/31 06:58:00;;;;;;;10.80;5.87;;;;;;;17.15;69.58;100338.70;1595405;88;21267;-78
2021/03/31 07:00:34;;;;;;;12.07;5.58;;;;;;;17.26;69.40;100328.77;1598374;88;21278;-79
2021/03/31 07:03:05;;;;;;;12.25;5.70;;;;;;;17.36;69.62;100333.80;1562684;89;21223;-78
2021/03/31 07:05:39;;;;;;;9.55;5.12;;;;;;;17.58;69.33;100330.10;1592803;88;22309;-78
2021/03/31 07:08:15;;;;;;;9.15;4.90;;;;;;;17.62;68.38;100333.41;1594185;88;21254;-78
2021/03/31 07:10:50;;;;;;;10.08;4.85;;;;;;;17.49;68.15;100333.36;1593483;88;21183;-78
2021/03/31 07:13:31;;;;;;;12.03;4.60;;;;;;;17.25;67.69;100329.69;1586288;88;21268;-78
2021/03/31 07:16:00;;;;;;;8.28;4.70;;;;;;;16.78;67.28;100327.39;1580843;88;21283;-77
2021/03/31 07:18:30;;;;;;;9.75;4.70;;;;;;;16.37;67.79;100323.83;1590864;88;22290;-77
2021/03/31 07:20:58;;;;;;;6.80;4.25;;;;;;;16.20;67.75;100327.50;1592117;88;21200;-77
2021/03/31 07:23:26;;;;;;;18.77;5.10;;;;;;;15.85;67.72;100323.42;1588457;88;21688;-76
2021/03/31 07:25:56;;;;;;;10.50;5.22;;;;;;;15.55;67.52;100325.20;1589341;88;21279;-77
2021/03/31 07:28:30;;;;;;;9.68;4.78;;;;;;;15.29;67.32;100320.98;1588637;88;21214;-77
2021/03/31 07:30:59;;;;;;;7.53;4.70;;;;;;;15.02;67.22;100330.42;1590039;88;22185;-77
2021/03/31 07:33:29;;;;;;;9.63;4.58;;;;;;;14.77;67.21;100327.84;1574261;88;21237;-77
2021/03/31 07:35:57;;;;;;;6.58;4.10;;;;;;;14.63;67.22;100330.38;1572233;90;21253;-77
2021/03/31 07:38:26;;;;;;;8.95;4.70;;;;;;;14.45;66.82;100327.78;1569638;89;21264;-76
2021/03/31 07:41:16;;;;;;;11.85;4.78;;;;;;;14.30;66.80;100332.05;1588661;88;21273;-77
2021/03/31 07:43:45;;;;;;;7.70;4.30;;;;;;;14.14;66.42;100322.44;1600078;89;21662;-83
2021/03/31 07:46:17;;;;;;;10.98;4.45;;;;;;;13.99;66.37;100332.81;1602251;88;21215;-85
2021/03/31 07:48:45;;;;;;;7.45;3.80;;;;;;;13.94;66.28;100326.95;1601660;88;21291;-83
2021/03/31 07:51:23;;;;;;;7.20;3.92;;;;;;;13.95;66.36;100330.41;1601960;88;21286;-80
2021/03/31 07:53:53;;;;;;;6.35;3.77;;;;;;;13.95;65.84;100323.41;1599047;88;21634;-81
2021/03/31 07:56:33;;;;;;;11.73;3.45;;;;;;;13.97;65.82;100324.16;1599225;88;21234;-77
2021/03/31 07:59:07;;;;;;;5.97;3.35;;;;;;;14.02;65.73;100324.77;1602556;88;21231;-82
2021/03/31 08:01:47;;;;;;;10.48;3.85;;;;;;;14.07;65.56;100320.14;1602436;88;21716;-81
2021/03/31 08:04:17;;;;;;;9.03;3.62;;;;;;;14.10;65.08;100319.98;1602065;88;21262;-81
2021/03/31 08:06:46;;;;;;;5.75;2.72;;;;;;;14.10;64.97;100330.48;1599668;88;21251;-83
2021/03/31 08:09:27;;;;;;;8.33;3.17;;;;;;;14.14;64.78;100322.44;1603787;88;21647;-82
2021/03/31 08:12:05;;;;;;;9.38;3.87;;;;;;;14.22;64.65;100318.94;1601438;88;21192;-83
2021/03/31 08:14:42;;;;;;;5.35;3.33;;;;;;;14.41;64.38;100323.61;1799823;78;22394;-82
2021/03/31 08:17:13;;;;;;;8.08;3.08;;;;;;;14.45;64.33;100325.16;1767222;79;21071;-82
2021/03/31 08:19:45;;;;;;;5.37;2.42;;;;;;;14.54;64.06;100322.05;1765465;79;21221;-81
2021/03/31 08:22:35;;;;;;;6.25;2.80;;;;;;;14.58;63.87;100327.14;1768799;79;21029;-80
2021/03/31 08:25:17;;;;;;;12.73;3.42;;;;;;;14.67;63.87;100326.16;1765222;78;21069;-79
2021/03/31 08:28:05;;;;;;;4.42;2.62;;;;;;;14.82;63.30;100319.23;1857836;76;22273;-81
2021/03/31 08:30:36;;;;;;;21.75;4.17;;;;;;;14.87;63.56;100317.20;1833985;76;21164;-81
2021/03/31 08:33:04;;;;;;;14.20;2.70;;;;;;;14.97;63.30;100311.79;1831787;76;21184;-82
2021/03/31 08:35:32;;;;;;;4.20;2.10;;;;;;;15.09;63.27;100315.51;1833491;76;20981;-80
2021/03/31 08:38:00;;;;;;;22.00;4.95;;;;;;;15.18;62.82;100311.53;1833809;76;21138;-80
2021/03/31 08:40:31;;;;;;;8.43;2.77;;;;;;;15.25;62.42;100312.86;1833577;76;21052;-75
2021/03/31 08:43:01;;;;;;;16.55;2.85;;;;;;;15.37;62.37;100304.25;1831354;76;21009;-77
2021/03/31 08:45:42;;;;;;;60.38;9.35;;;;;;;15.44;62.14;100310.87;1834802;76;21368;-76
2021/03/31 08:48:10;;;;;;;43.38;7.95;;;;;;;15.39;61.34;100312.91;1834994;75;21649;-77
2021/03/31 08:50:40;;;;;;;48.42;9.60;;;;;;;15.48;61.10;100308.05;1835822;76;20950;-76
2021/03/31 08:53:11;;;;;;;41.65;7.92;;;;;;;15.45;60.65;100312.55;1831907;76;20993;-76
2021/03/31 08:55:41;;;;;;;103.35;18.27;;;;;;;15.53;60.81;100309.95;1834362;76;21474;-78
2021/03/31 08:58:11;;;;;;;67.05;11.03;;;;;;;15.56;60.43;100311.09;1806577;77;21692;-77
2021/03/31 09:00:52;;;;;;;13.68;3.75;;;;;;;15.65;60.28;100304.80;1837220;75;21247;-75
2021/03/31 09:03:22;;;;;;;56.08;10.25;;;;;;;15.70;58.65;100311.16;1837443;76;21033;-76
2021/03/31 09:05:58;;;;;;;161.20;25.30;;;;;;;15.75;59.06;100306.47;1838801;76;21237;-77
2021/03/31 09:08:27;;;;;;;42.50;7.40;;;;;;;15.71;59.29;100308.92;1834275;77;22558;-76
2021/03/31 09:11:03;;;;;;;55.50;10.38;;;;;;;15.80;59.20;100307.05;1801703;78;21205;-77
2021/03/31 09:13:36;;;;;;;81.90;15.20;;;;;;;15.89;58.97;100313.08;1802431;77;21569;-76
2021/03/31 09:16:11;;;;;;;128.32;22.20;;;;;;;15.95;58.77;100304.43;1776642;79;21186;-77
2021/03/31 09:18:42;;;;;;;46.65;9.53;;;;;;;16.03;58.39;100303.50;1767686;79;21174;-77
2021/03/31 09:21:11;;;;;;;131.95;21.30;;;;;;;16.10;58.24;100306.12;1771901;79;21243;-77
2021/03/31 09:23:46;;;;;;;74.00;13.10;;;;;;;16.18;57.83;100298.59;1775634;79;22368;-76
2021/03/31 09:26:14;;;;;;;51.83;9.60;;;;;;;16.19;57.28;100299.00;1774196;80;21150;-76
2021/03/31 09:28:42;;;;;;;126.82;19.65;;;;;;;16.21;57.19;100298.41;1759845;79;21579;-75
2021/03/31 09:31:20;;;;;;;15.78;4.10;;;;;;;16.26;56.47;100301.61;1762609;79;21660;-76
2021/03/31 09:33:44;;;;;;;18.95;2.65;;;;;;;16.30;55.11;100296.55;1759581;79;22359;-76
2021/03/31 09:36:15;;;;;;;8.23;1.92;;;;;;;16.16;54.95;100297.00;1743334;80;21376;-75
2021/03/31 09:38:43;;;;;;;6.50;1.62;;;;;;;16.14;54.38;100295.79;1766328;79;21271;-77
2021/03/31 09:41:11;;;;;;;8.08;1.60;;;;;;;16.07;53.67;100299.25;1757373;79;21136;-76
2021/03/31 09:43:39;;;;;;;7.75;1.70;;;;;;;15.99;51.96;100294.95;1760403;79;21647;-77
2021/03/31 09:46:07;;;;;;;5.40;1.82;;;;;;;16.03;52.85;100302.19;1762453;79;21159;-77
2021/03/31 09:48:36;;;;;;;8.65;2.17;;;;;;;15.99;52.32;100295.39;1758153;80;21188;-77
2021/03/31 09:51:12;;;;;;;20.12;1.85;;;;;;;16.04;52.74;100297.28;1754459;79;21078;-77
2021/03/31 09:53:41;;;;;;;2.27;1.35;;;;;;;16.02;50.77;100295.20;1755537;79;28353;-77
2021/03/31 09:56:12;;;;;;;3.95;1.60;;;;;;;16.01;50.70;100290.88;1720646;80;21202;-76
2021/03/31 09:58:41;;;;;;;5.37;2.67;;;;;;;15.89;45.18;100290.69;1761397;80;21187;-76
2021/03/31 10:01:13;;;;;;;5.08;1.82;;;;;;;15.93;50.18;100298.41;1741132;80;21552;-77
2021/03/31 10:03:43;;;;;;;6.65;1.75;;;;;;;16.07;50.76;100291.34;1759312;79;21212;-76
2021/03/31 10:06:20;;;;;;;4.53;2.60;;;;;;;16.23;51.13;100282.05;1780528;78;21171;-75
2021/03/31 10:08:48;;;;;;;57.43;5.60;;;;;;;16.34;50.73;100289.28;1762490;80;21128;-77
2021/03/31 10:11:36;;;;;;;31.97;4.37;;;;;;;16.41;50.53;100277.87;1764510;79;21207;-77
2021/03/31 10:14:05;;;;;;;72.58;8.70;;;;;;;16.47;50.45;100282.80;1769522;79;21208;-77
2021/03/31 10:16:38;;;;;;;44.40;7.85;;;;;;;16.55;50.41;100283.12;1763278;79;21022;-78
2021/03/31 10:19:08;;;;;;;88.27;12.73;;;;;;;16.60;50.10;100274.45;1770672;79;21070;-76
2021/03/31 10:21:38;;;;;;;98.90;12.73;;;;;;;16.71;50.17;100274.63;1764533;80;21151;-74
2021/03/31 10:24:07;;;;;;;38.75;7.85;;;;;;;16.77;50.05;100270.30;1767346;80;21120;-69
2021/03/31 10:26:38;;;;;;;19.10;4.37;;;;;;;16.89;49.49;100277.92;1773985;79;22354;-77
2021/03/31 10:29:22;;;;;;;30.05;4.22;;;;;;;16.80;48.57;100269.73;1785739;79;21089;-76
2021/03/31 10:31:50;;;;;;;4.62;1.95;;;;;;;16.75;48.44;100273.98;1785669;79;21174;-76
2021/03/31 10:34:19;;;;;;;4.30;2.20;;;;;;;16.73;47.82;100275.38;1783952;79;21196;-75
2021/03/31 10:39:57;;;;;;;10.95;2.33;;;;;;;16.60;47.20;100267.03;1771802;79;22406;-75
2021/03/31 10:50:50;;;;;;;8.78;2.90;;;;;;;16.94;44.53;100249.91;1829338;77;22746;-74
2021/03/31 10:53:12;;;;;;;13.08;5.10;;;;;;;16.84;46.06;100242.23;1802139;77;20984;-74
2021/03/31 10:55:43;;;;;;;12.37;4.97;;;;;;;17.06;46.52;100249.12;1805909;77;21372;-73
2021/03/31 10:58:13;;;;;;;6.95;3.72;;;;;;;17.21;46.42;100249.41;1795889;78;21197;-76
2021/03/31 11:00:40;;;;;;;6.42;2.52;;;;;;;17.29;45.93;100244.95;1800752;77;21196;-77
2021/03/31 11:03:07;;;;;;;5.55;2.72;;;;;;;17.33;45.73;100242.94;1796206;78;21779;-77
2021/03/31 11:05:34;;;;;;;17.80;3.60;;;;;;;17.34;45.74;100239.38;1797726;77;21044;-75
2021/03/31 11:08:01;;;;;;;20.43;3.05;;;;;;;17.40;45.66;100241.59;1803721;77;21585;-73
2021/03/31 11:10:28;;;;;;;8.13;3.60;;;;;;;17.46;45.57;100238.53;1794927;77;21722;-75
2021/03/31 11:12:56;;;;;;;6.78;3.17;;;;;;;17.54;45.48;100241.50;1806338;77;21159;-76
2021/03/31 11:15:25;;;;;;;4.28;2.12;;;;;;;17.60;45.15;100237.12;1797954;77;21168;-77
2021/03/31 11:18:10;;;;;;;4.50;2.22;;;;;;;17.68;45.21;100241.40;1801578;78;21550;-76
2021/03/31 11:28:26;;;;;;;6.25;3.30;;;;;;;18.00;44.43;100230.42;1821623;76;22875;-76
2021/03/31 11:31:15;;;;;;;11.75;2.20;;;;;;;17.99;44.35;100233.19;1797331;77;21051;-75
2021/03/31 11:34:02;;;;;;;3.22;1.72;;;;;;;18.04;42.84;100231.91;1795262;78;23100;-75
2021/03/31 11:36:29;;;;;;;4.72;1.98;;;;;;;17.92;41.70;100238.03;1765024;80;21021;-76
2021/03/31 11:38:56;;;;;;;5.40;2.15;;;;;;;17.74;42.53;100235.33;1765040;80;21144;-77
2021/03/31 11:41:23;;;;;;;44.45;4.80;;;;;;;17.74;42.38;100222.12;1763957;79;21068;-76
2021/03/31 11:43:51;;;;;;;2.90;1.70;;;;;;;17.76;41.80;100218.91;1763944;80;21189;-76
2021/03/31 11:46:18;;;;;;;6.12;3.47;;;;;;;17.63;40.22;100209.17;1765537;80;21241;-75
2021/03/31 11:48:45;;;;;;;8.13;3.85;;;;;;;17.61;41.11;100215.52;1767305;79;21052;-75
2021/03/31 11:51:13;;;;;;;3.35;2.15;;;;;;;17.63;41.02;100213.62;1767317;78;21678;-76
2021/03/31 11:53:40;;;;;;;5.75;2.10;;;;;;;17.66;41.39;100208.96;1762744;79;21229;-75
2021/03/31 11:56:07;;;;;;;6.97;2.05;;;;;;;17.73;40.58;100202.80;1764499;79;21188;-77
2021/03/31 11:58:35;;;;;;;4.22;2.25;;;;;;;17.75;40.54;100204.00;1767644;80;21268;-73